Time;durP1;ratioP1;P1;durP2;ratioP2;P2;SDS_P1;SDS_P2;PMS_P1;PMS_P2;Temp;Humidity;BMP_temperature;BMP_pressure;BME280_temperature;BME280_humidity;BME280_pressure;Samples;Min_cycle;Max_cycle;Signal;HPM_P1;HPM_P2
2022/06/07 00:00:49;;;;;;;4.63;0.82;;;15.70;99.90;;;;;;5033951;28;20704;-87
2022/06/07 00:03:15;;;;;;;1.58;0.70;;;15.60;99.90;;;;;;5034058;28;20206;-86
2022/06/07 00:05:43;;;;;;;1.15;0.68;;;15.50;99.90;;;;;;5033974;28;20618;-86
2022/06/07 00:08:15;;;;;;;1.20;0.65;;;15.50;99.90;;;;;;5040848;28;20824;-87
2022/06/07 00:10:42;;;;;;;2.05;0.68;;;15.50;99.90;;;;;;5034703;28;20182;-86
2022/06/07 00:13:08;;;;;;;1.27;0.70;;;15.40;99.90;;;;;;5033784;28;20592;-87
2022/06/07 00:15:34;;;;;;;2.05;0.80;;;15.40;99.90;;;;;;5034099;28;20277;-87
2022/06/07 00:18:00;;;;;;;2.25;0.70;;;15.40;99.90;;;;;;5033092;28;20226;-87
2022/06/07 00:20:26;;;;;;;1.67;0.90;;;15.40;99.90;;;;;;5034469;28;20257;-88
2022/06/07 00:22:52;;;;;;;1.88;0.80;;;15.30;99.90;;;;;;5034324;28;20337;-87
2022/06/07 00:25:18;;;;;;;2.33;0.80;;;15.20;99.90;;;;;;5033311;28;20206;-87
2022/06/07 00:27:44;;;;;;;0.98;0.60;;;15.20;99.90;;;;;;5032279;28;20178;-90
2022/06/07 00:30:11;;;;;;;2.50;0.90;;;15.20;99.90;;;;;;5033422;28;20197;-87
2022/06/07 00:32:37;;;;;;;4.03;1.27;;;15.20;99.90;;;;;;5032611;28;20210;-87
2022/06/07 00:35:04;;;;;;;0.77;0.70;;;15.20;99.90;;;;;;5033393;28;20210;-86
2022/06/07 00:37:30;;;;;;;1.20;0.75;;;15.00;99.90;;;;;;5033489;28;20225;-86
2022/06/07 00:39:56;;;;;;;2.05;0.70;;;15.00;99.90;;;;;;5033333;28;20283;-89
2022/06/07 00:42:22;;;;;;;1.52;0.80;;;15.00;99.90;;;;;;5033647;28;20206;-86
2022/06/07 00:44:48;;;;;;;2.00;0.70;;;15.00;99.90;;;;;;5031447;28;20291;-88
2022/06/07 00:47:15;;;;;;;2.90;0.82;;;14.80;99.90;;;;;;5034723;28;20182;-88
2022/06/07 00:49:49;;;;;;;1.30;0.90;;;14.70;99.90;;;;;;5032214;28;20657;-85
2022/06/07 00:52:17;;;;;;;5.80;1.00;;;14.70;99.90;;;;;;5032519;28;20344;-87
2022/06/07 00:54:42;;;;;;;1.63;0.85;;;14.60;99.90;;;;;;5031717;28;20248;-87
2022/06/07 00:57:09;;;;;;;2.47;0.70;;;14.60;99.90;;;;;;5032436;28;20230;-88
2022/06/07 00:59:35;;;;;;;3.10;0.70;;;14.60;99.90;;;;;;5032043;28;20222;-86
2022/06/07 01:02:01;;;;;;;1.75;0.80;;;14.60;99.90;;;;;;5017651;28;20186;-86
2022/06/07 01:04:27;;;;;;;1.40;0.90;;;14.60;99.90;;;;;;5026764;28;20593;-86
2022/06/07 01:12:27;;;;;;;2.65;0.90;;;14.50;99.90;;;;;;5026355;28;20233;-90
2022/06/07 01:14:53;;;;;;;3.35;0.75;;;14.40;99.90;;;;;;5031235;28;20267;-87
2022/06/07 01:17:19;;;;;;;1.77;0.70;;;14.50;99.90;;;;;;5033042;28;20622;-85
2022/06/07 01:19:46;;;;;;;3.75;0.77;;;14.50;99.90;;;;;;5016203;28;20175;-88
2022/06/07 01:22:12;;;;;;;1.23;0.80;;;14.50;99.90;;;;;;5032574;28;20189;-89
2022/06/07 01:24:38;;;;;;;3.00;0.93;;;14.40;99.90;;;;;;5029907;28;20179;-86
2022/06/07 01:27:05;;;;;;;2.78;0.90;;;14.40;99.90;;;;;;5042298;28;20179;-89
2022/06/07 01:29:31;;;;;;;2.63;0.85;;;14.30;99.90;;;;;;5032723;28;20190;-88
2022/06/07 01:31:56;;;;;;;2.92;0.73;;;14.30;99.90;;;;;;5032602;28;20615;-89
2022/06/07 01:34:22;;;;;;;1.20;0.90;;;14.30;99.90;;;;;;5033362;28;20320;-86
2022/06/07 01:36:48;;;;;;;2.65;1.00;;;14.20;99.90;;;;;;5033106;28;20199;-89
2022/06/07 01:41:58;;;;;;;0.80;0.80;;;14.20;99.90;;;;;;5030719;28;20217;-88
2022/06/07 01:44:30;;;;;;;2.70;1.13;;;14.10;99.90;;;;;;5049164;28;20206;-88
2022/06/07 01:46:58;;;;;;;3.83;0.80;;;14.00;99.90;;;;;;5032278;28;20191;-87
2022/06/07 01:49:25;;;;;;;1.88;1.05;;;13.90;99.90;;;;;;5026287;28;20241;-88
2022/06/07 01:51:52;;;;;;;2.75;0.98;;;14.00;99.90;;;;;;5012841;28;20187;-88
2022/06/07 01:54:20;;;;;;;1.30;1.00;;;13.90;99.90;;;;;;5026952;28;20190;-88
2022/06/07 01:56:45;;;;;;;0.70;0.63;;;13.80;99.90;;;;;;5032756;28;20210;-89
2022/06/07 01:59:11;;;;;;;1.13;0.95;;;13.80;99.90;;;;;;5031979;28;20175;-88
2022/06/07 02:01:37;;;;;;;2.35;0.80;;;13.80;99.90;;;;;;5031709;28;20191;-87
2022/06/07 02:04:04;;;;;;;2.60;1.17;;;13.80;99.90;;;;;;5033300;28;20522;-89
2022/06/07 02:06:29;;;;;;;2.75;0.85;;;13.80;99.90;;;;;;5031296;28;20300;-90
2022/06/07 02:08:55;;;;;;;2.10;1.10;;;13.80;99.90;;;;;;5027550;28;20201;-89
2022/06/07 02:11:23;;;;;;;1.58;1.00;;;13.80;99.90;;;;;;5032350;28;20190;-89
2022/06/07 02:13:49;;;;;;;2.05;0.80;;;13.80;99.90;;;;;;5031295;28;20657;-89
2022/06/07 02:16:16;;;;;;;3.30;0.60;;;13.70;99.90;;;;;;5031125;28;20241;-87
2022/06/07 02:18:43;;;;;;;1.30;0.70;;;13.60;99.90;;;;;;5031269;28;20186;-89
2022/06/07 02:21:09;;;;;;;1.88;0.80;;;13.70;99.90;;;;;;5028711;28;20187;-87
2022/06/07 02:23:37;;;;;;;2.65;0.90;;;13.60;99.90;;;;;;5017432;28;20180;-91
2022/06/07 02:26:25;;;;;;;2.67;1.00;;;13.70;99.90;;;;;;5019890;28;20746;-88
2022/06/07 02:29:07;;;;;;;4.28;1.33;;;13.70;99.90;;;;;;5030803;28;20183;-89
2022/06/07 02:31:36;;;;;;;2.60;1.05;;;13.70;99.90;;;;;;5031700;28;20194;-87
2022/06/07 02:34:03;;;;;;;1.15;1.00;;;13.80;99.90;;;;;;5031216;28;20642;-88
2022/06/07 02:36:33;;;;;;;0.80;0.80;;;13.80;99.90;;;;;;5031722;28;20210;-88
2022/06/07 02:39:01;;;;;;;3.53;1.10;;;13.80;99.90;;;;;;5045325;28;20186;-87
2022/06/07 02:41:29;;;;;;;2.95;1.10;;;13.80;99.90;;;;;;5032760;28;20182;-88
2022/06/07 02:43:55;;;;;;;3.58;0.90;;;13.80;99.90;;;;;;5032541;28;20182;-88
2022/06/07 02:46:21;;;;;;;1.70;0.90;;;13.70;99.90;;;;;;5031254;28;20234;-88
2022/06/07 02:48:46;;;;;;;3.20;0.80;;;13.80;99.90;;;;;;5030271;28;20268;-88
2022/06/07 02:51:12;;;;;;;2.60;1.08;;;13.80;99.90;;;;;;5031344;28;20270;-89
2022/06/07 02:53:38;;;;;;;1.63;0.82;;;13.80;99.90;;;;;;5031168;28;20195;-87
2022/06/07 02:56:05;;;;;;;2.45;0.90;;;13.80;99.90;;;;;;5030554;28;20237;-87
2022/06/07 02:58:31;;;;;;;1.58;1.00;;;13.80;99.90;;;;;;5030625;28;20321;-88
2022/06/07 03:01:00;;;;;;;1.70;1.08;;;13.80;99.90;;;;;;5031112;28;20183;-89
2022/06/07 03:03:27;;;;;;;3.63;1.10;;;13.80;99.90;;;;;;5028114;28;20187;-87
2022/06/07 03:05:53;;;;;;;1.25;0.90;;;13.80;99.90;;;;;;5029762;28;20210;-89
2022/06/07 03:08:20;;;;;;;2.53;1.15;;;13.90;99.90;;;;;;5030190;28;20199;-89
2022/06/07 03:10:47;;;;;;;2.53;1.00;;;13.90;99.90;;;;;;5030032;28;20248;-87
2022/06/07 03:13:13;;;;;;;2.55;1.00;;;13.80;99.90;;;;;;5027778;28;20282;-88
2022/06/07 03:15:40;;;;;;;1.10;1.00;;;13.80;99.90;;;;;;5027801;28;20255;-88
2022/06/07 03:18:07;;;;;;;2.67;1.00;;;13.80;99.90;;;;;;5044053;28;20211;-88
2022/06/07 03:20:33;;;;;;;1.73;1.00;;;13.80;99.90;;;;;;5047009;28;20210;-87
2022/06/07 03:22:59;;;;;;;1.42;1.10;;;13.80;99.90;;;;;;5046701;28;20196;-88
2022/06/07 03:25:26;;;;;;;3.45;1.08;;;13.80;99.90;;;;;;5030161;28;20670;-88
2022/06/07 03:27:52;;;;;;;2.70;1.15;;;13.90;99.90;;;;;;5025385;28;20278;-88
2022/06/07 03:30:18;;;;;;;6.05;1.00;;;13.80;99.90;;;;;;5024878;28;20273;-90
2022/06/07 03:32:45;;;;;;;1.33;0.98;;;13.80;99.90;;;;;;5028245;28;20187;-87
2022/06/07 03:35:13;;;;;;;1.35;0.90;;;13.80;99.90;;;;;;5030905;28;20214;-87
2022/06/07 03:37:39;;;;;;;1.90;1.00;;;13.90;99.90;;;;;;5027039;28;20244;-89
2022/06/07 03:40:11;;;;;;;3.10;1.20;;;13.90;99.90;;;;;;5025248;28;20274;-88
2022/06/07 03:42:37;;;;;;;4.20;1.05;;;14.00;99.90;;;;;;5027277;28;20664;-87
2022/06/07 03:45:03;;;;;;;2.25;1.42;;;14.10;99.90;;;;;;5021406;28;20210;-89
2022/06/07 03:47:29;;;;;;;3.63;1.40;;;14.10;99.90;;;;;;5029869;28;20289;-88
2022/06/07 03:49:55;;;;;;;1.45;1.00;;;14.10;99.90;;;;;;5026844;28;20286;-88
2022/06/07 03:52:21;;;;;;;2.63;1.33;;;14.20;99.90;;;;;;5025429;28;20194;-88
2022/06/07 03:54:49;;;;;;;3.33;1.10;;;14.20;99.90;;;;;;5029478;28;20744;-87
2022/06/07 03:57:15;;;;;;;2.65;1.40;;;14.30;99.90;;;;;;5024814;28;20265;-88
2022/06/07 03:59:41;;;;;;;3.80;1.30;;;14.30;99.90;;;;;;5043473;28;20183;-87
2022/06/07 04:02:07;;;;;;;2.10;1.38;;;14.30;99.90;;;;;;5046255;28;20285;-88
2022/06/07 04:04:35;;;;;;;2.58;1.38;;;14.30;99.90;;;;;;5029398;28;20192;-87
2022/06/07 04:09:45;;;;;;;2.85;1.45;;;14.30;99.90;;;;;;5040905;28;20244;-87
2022/06/07 04:12:16;;;;;;;2.20;1.38;;;14.40;99.90;;;;;;5030743;28;20638;-90
2022/06/07 04:14:44;;;;;;;2.78;1.50;;;14.40;99.90;;;;;;5028986;28;20562;-88
2022/06/07 04:17:11;;;;;;;4.40;1.33;;;14.40;99.90;;;;;;5029756;28;20214;-88
2022/06/07 04:19:38;;;;;;;2.45;1.25;;;14.50;99.90;;;;;;5030005;28;20658;-89
2022/06/07 04:22:05;;;;;;;3.63;1.30;;;14.40;99.90;;;;;;5030039;28;20182;-88
2022/06/07 04:24:31;;;;;;;1.58;1.48;;;14.50;99.90;;;;;;5026439;28;20187;-89
2022/06/07 04:26:57;;;;;;;5.97;1.50;;;14.50;99.90;;;;;;5029702;28;20194;-89
2022/06/07 04:29:25;;;;;;;5.60;1.45;;;14.50;99.90;;;;;;5029186;28;20285;-88
2022/06/07 04:31:51;;;;;;;3.95;1.85;;;14.50;99.90;;;;;;5019226;28;20187;-89
2022/06/07 04:34:18;;;;;;;2.85;1.60;;;14.50;99.90;;;;;;5045245;28;20194;-88
2022/06/07 04:36:45;;;;;;;5.00;1.77;;;14.60;99.90;;;;;;5029784;28;20352;-88
2022/06/07 04:39:12;;;;;;;4.43;1.65;;;14.60;99.90;;;;;;5019074;28;20188;-88
2022/06/07 04:41:38;;;;;;;3.92;1.83;;;14.60;99.90;;;;;;5032652;28;20182;-89
2022/06/07 04:44:05;;;;;;;5.78;2.25;;;14.70;99.90;;;;;;5033512;28;20213;-88
2022/06/07 04:46:31;;;;;;;2.67;1.73;;;14.70;99.90;;;;;;5033548;28;20301;-88
2022/06/07 04:48:57;;;;;;;3.42;1.63;;;14.80;99.90;;;;;;5032298;28;20202;-88
2022/06/07 04:51:27;;;;;;;3.40;1.92;;;14.90;99.90;;;;;;5033104;28;20281;-87
2022/06/07 04:53:54;;;;;;;5.22;1.95;;;15.00;99.90;;;;;;5033228;28;20621;-89
2022/06/07 04:56:33;;;;;;;4.90;1.80;;;15.10;99.90;;;;;;5030804;28;20266;-89
2022/06/07 04:59:00;;;;;;;4.72;1.80;;;15.10;99.90;;;;;;5034442;28;20214;-89
2022/06/07 05:01:35;;;;;;;3.97;1.85;;;15.10;99.90;;;;;;5026489;28;20699;-89
2022/06/07 05:04:02;;;;;;;2.53;1.65;;;15.10;99.90;;;;;;5033456;28;20186;-89
2022/06/07 05:06:32;;;;;;;4.03;1.80;;;15.00;99.90;;;;;;5033559;28;20210;-89
2022/06/07 05:09:01;;;;;;;2.60;1.75;;;15.00;99.90;;;;;;5022090;28;20389;-88
2022/06/07 05:11:27;;;;;;;3.13;1.70;;;15.00;99.90;;;;;;5047751;28;20325;-87
2022/06/07 05:13:54;;;;;;;7.07;1.90;;;15.00;99.90;;;;;;5031173;28;20205;-88
2022/06/07 05:16:21;;;;;;;3.90;1.70;;;15.00;99.90;;;;;;5032997;28;20316;-89
2022/06/07 05:18:51;;;;;;;4.40;2.05;;;15.10;99.90;;;;;;5032477;28;20186;-88
2022/06/07 05:21:21;;;;;;;3.95;1.90;;;15.10;99.90;;;;;;5032391;28;20228;-89
2022/06/07 05:23:48;;;;;;;3.03;1.60;;;15.20;99.90;;;;;;5032515;28;20191;-88
2022/06/07 05:26:25;;;;;;;2.10;1.90;;;15.20;99.90;;;;;;5033101;28;20224;-89
2022/06/07 05:28:51;;;;;;;3.65;1.55;;;15.20;99.90;;;;;;5016064;28;20597;-90
2022/06/07 05:31:17;;;;;;;3.58;2.00;;;15.30;99.90;;;;;;5042928;28;20272;-88
2022/06/07 05:33:43;;;;;;;3.47;2.08;;;15.30;99.90;;;;;;5023340;28;20218;-88
2022/06/07 05:36:09;;;;;;;2.60;1.60;;;15.30;99.90;;;;;;5029372;28;20583;-88
2022/06/07 05:38:35;;;;;;;5.32;1.85;;;15.30;99.90;;;;;;5030320;28;20685;-87
2022/06/07 05:41:00;;;;;;;2.50;1.65;;;15.40;99.90;;;;;;5024742;28;20186;-88
2022/06/07 05:43:27;;;;;;;5.50;1.98;;;15.40;99.90;;;;;;5030181;28;20265;-89
2022/06/07 05:45:55;;;;;;;4.55;1.55;;;15.40;99.90;;;;;;5032550;28;20202;-89
2022/06/07 05:48:22;;;;;;;4.28;1.85;;;15.40;99.90;;;;;;5032511;28;20191;-88
2022/06/07 05:50:49;;;;;;;5.80;1.50;;;15.50;99.90;;;;;;5031212;28;20198;-88
2022/06/07 05:53:15;;;;;;;4.95;1.65;;;15.50;99.90;;;;;;5031065;28;20190;-88
2022/06/07 05:55:41;;;;;;;4.70;1.58;;;15.50;99.90;;;;;;5033060;28;20210;-87
2022/06/07 05:58:07;;;;;;;3.28;1.77;;;15.60;99.90;;;;;;5032221;28;20214;-90
2022/06/07 06:00:34;;;;;;;2.53;1.63;;;15.60;99.90;;;;;;5032874;28;20194;-89
2022/06/07 06:03:00;;;;;;;4.45;1.60;;;15.70;99.90;;;;;;5027933;28;20183;-88
2022/06/07 06:05:26;;;;;;;5.85;2.00;;;15.70;99.90;;;;;;5019462;28;20217;-87
2022/06/07 06:10:36;;;;;;;2.72;1.52;;;15.80;99.90;;;;;;5033616;28;20684;-88
2022/06/07 06:13:01;;;;;;;4.47;1.95;;;15.90;99.90;;;;;;5023819;28;20196;-88
2022/06/07 06:15:28;;;;;;;3.53;1.30;;;15.90;99.90;;;;;;5025192;28;20333;-89
2022/06/07 06:17:55;;;;;;;2.38;1.33;;;16.00;99.90;;;;;;5022650;28;20272;-89
2022/06/07 06:20:22;;;;;;;4.20;1.70;;;16.20;99.90;;;;;;5031719;28;20222;-88
2022/06/07 06:22:48;;;;;;;6.82;1.70;;;16.20;99.90;;;;;;5031309;28;20638;-89
2022/06/07 06:25:14;;;;;;;2.97;1.80;;;16.30;99.90;;;;;;5028264;28;20245;-88
2022/06/07 06:27:40;;;;;;;3.42;1.60;;;16.40;99.90;;;;;;5021285;28;20190;-89
2022/06/07 06:30:07;;;;;;;3.60;2.00;;;16.40;99.90;;;;;;5031421;28;20203;-89
2022/06/07 06:32:33;;;;;;;8.73;1.67;;;16.50;99.90;;;;;;5031378;28;20214;-89
2022/06/07 06:34:59;;;;;;;4.38;1.52;;;16.60;99.90;;;;;;5017056;28;20303;-88
2022/06/07 06:37:27;;;;;;;5.93;1.90;;;16.70;99.90;;;;;;5030663;28;20202;-89
2022/06/07 06:39:53;;;;;;;3.50;1.50;;;16.70;99.90;;;;;;5029689;28;20556;-89
2022/06/07 06:42:19;;;;;;;3.47;1.50;;;16.80;99.90;;;;;;5031292;28;20166;-88
2022/06/07 06:44:46;;;;;;;2.95;1.52;;;16.90;99.90;;;;;;5027888;28;20195;-89
2022/06/07 06:47:13;;;;;;;2.83;1.65;;;17.00;99.90;;;;;;5027418;28;20630;-88
2022/06/07 06:49:41;;;;;;;4.57;1.50;;;17.10;99.90;;;;;;5031660;28;20289;-87
2022/06/07 06:52:09;;;;;;;2.80;1.50;;;17.20;99.90;;;;;;5031720;28;20224;-88
2022/06/07 06:54:37;;;;;;;4.53;1.38;;;17.30;99.90;;;;;;5031407;28;20253;-88
2022/06/07 06:57:04;;;;;;;4.35;1.35;;;17.40;99.90;;;;;;5031508;28;20685;-89
2022/06/07 06:59:31;;;;;;;2.00;1.27;;;17.60;99.90;;;;;;5033002;28;20163;-89
2022/06/07 07:01:57;;;;;;;5.63;1.60;;;17.70;99.90;;;;;;5030494;28;20190;-89
2022/06/07 07:04:23;;;;;;;2.20;1.30;;;17.80;99.90;;;;;;5032941;28;20694;-88
2022/06/07 07:06:49;;;;;;;3.15;1.55;;;17.80;99.90;;;;;;5030311;28;20186;-88
2022/06/07 07:09:18;;;;;;;4.05;1.55;;;18.00;99.90;;;;;;5021403;28;20688;-88
2022/06/07 07:11:50;;;;;;;2.10;1.30;;;18.10;99.90;;;;;;5030917;28;20275;-88
2022/06/07 07:14:16;;;;;;;2.28;1.10;;;18.20;99.90;;;;;;5030432;28;20194;-88
2022/06/07 07:16:52;;;;;;;3.90;1.10;;;18.20;99.90;;;;;;5029776;28;20538;-90
2022/06/07 07:19:18;;;;;;;3.10;1.25;;;18.30;99.90;;;;;;5029935;28;20186;-88
2022/06/07 07:21:48;;;;;;;2.97;0.77;;;18.30;99.90;;;;;;5029858;28;20717;-88
2022/06/07 07:24:16;;;;;;;6.82;1.38;;;18.50;99.90;;;;;;5023183;28;20187;-89
2022/06/07 07:26:44;;;;;;;1.65;0.90;;;18.60;99.90;;;;;;5040072;28;20229;-88
2022/06/07 07:29:12;;;;;;;3.38;1.10;;;18.60;99.90;;;;;;5030745;28;20194;-89
2022/06/07 07:31:38;;;;;;;3.20;0.90;;;18.60;99.90;;;;;;5033641;28;20210;-88
2022/06/07 07:34:07;;;;;;;1.90;0.80;;;18.70;99.90;;;;;;5017181;28;20182;-87
2022/06/07 07:36:42;;;;;;;2.70;0.95;;;18.70;99.90;;;;;;5014187;28;20237;-88
2022/06/07 07:39:09;;;;;;;1.25;0.68;;;18.80;99.70;;;;;;5029983;28;20630;-89
2022/06/07 07:41:40;;;;;;;1.67;1.00;;;18.80;99.90;;;;;;5031038;28;20175;-90
2022/06/07 07:44:12;;;;;;;1.95;0.95;;;19.00;99.90;;;;;;5034499;28;20191;-87
2022/06/07 07:46:40;;;;;;;6.03;0.90;;;19.20;99.90;;;;;;5011734;28;20302;-88
2022/06/07 07:49:07;;;;;;;5.63;0.82;;;19.10;99.90;;;;;;5022226;28;20218;-85
2022/06/07 07:51:40;;;;;;;1.42;0.98;;;19.30;99.90;;;;;;5028929;28;20171;-87
2022/06/07 07:54:18;;;;;;;3.47;0.93;;;19.40;99.90;;;;;;5012074;28;20189;-90
2022/06/07 07:56:44;;;;;;;2.25;0.80;;;19.40;99.80;;;;;;5024149;28;20573;-86
2022/06/07 07:59:14;;;;;;;3.45;1.10;;;19.20;99.50;;;;;;5032336;28;20205;-87
2022/06/07 08:01:40;;;;;;;4.45;1.40;;;19.10;99.90;;;;;;5029133;28;20689;-86
2022/06/07 08:04:11;;;;;;;2.05;1.10;;;19.30;99.90;;;;;;5029418;28;20189;-87
2022/06/07 08:06:38;;;;;;;2.40;1.40;;;19.40;99.90;;;;;;5030424;28;20210;-87
2022/06/07 08:09:08;;;;;;;8.85;1.20;;;19.50;99.90;;;;;;5054782;28;20559;-86
2022/06/07 08:11:36;;;;;;;2.33;1.17;;;19.40;99.90;;;;;;5018942;28;20606;-87
2022/06/07 08:14:05;;;;;;;10.55;1.00;;;19.60;99.90;;;;;;5027729;28;20190;-86
2022/06/07 08:16:31;;;;;;;4.05;0.85;;;19.60;99.30;;;;;;5021489;28;20242;-87
2022/06/07 08:19:18;;;;;;;3.95;0.95;;;19.60;99.50;;;;;;5033453;28;20248;-87
2022/06/07 08:21:44;;;;;;;2.67;0.98;;;19.60;99.50;;;;;;5035733;28;20178;-87
2022/06/07 08:24:18;;;;;;;1.48;0.90;;;19.60;99.90;;;;;;5015245;28;20163;-87
2022/06/07 08:26:49;;;;;;;1.80;0.93;;;19.60;99.30;;;;;;5019112;28;20230;-88
2022/06/07 08:29:16;;;;;;;5.53;0.98;;;19.70;99.90;;;;;;5049903;28;20190;-86
2022/06/07 08:31:42;;;;;;;5.10;0.90;;;19.90;99.50;;;;;;5033899;28;20293;-87
2022/06/07 08:39:38;;;;;;;1.88;0.73;;;20.50;98.40;;;;;;5055076;28;20169;-87
2022/06/07 08:42:23;;;;;;;3.40;0.70;;;20.60;95.90;;;;;;5038321;28;20174;-86
2022/06/07 08:44:57;;;;;;;1.42;0.70;;;20.70;96.80;;;;;;5033911;28;20206;-87
2022/06/07 08:47:53;;;;;;;6.70;1.10;;;20.80;96.20;;;;;;5033688;28;20525;-86
2022/06/07 08:50:21;;;;;;;1.88;0.70;;;20.90;95.50;;;;;;5020895;28;20190;-89
2022/06/07 08:52:56;;;;;;;2.25;0.70;;;20.80;95.00;;;;;;5013854;28;20262;-86
2022/06/07 08:55:30;;;;;;;2.88;0.77;;;20.70;95.20;;;;;;5028650;28;20200;-87
2022/06/07 08:58:21;;;;;;;3.47;1.00;;;20.80;95.70;;;;;;5016059;28;20231;-87
2022/06/07 09:00:57;;;;;;;1.77;0.82;;;20.80;96.10;;;;;;5000084;28;20207;-88
2022/06/07 09:03:44;;;;;;;1.15;0.77;;;20.70;93.70;;;;;;5015289;28;20163;-86
2022/06/07 09:06:29;;;;;;;1.88;0.80;;;20.60;93.90;;;;;;5019742;28;20199;-87
2022/06/07 09:08:57;;;;;;;3.58;0.90;;;20.50;95.00;;;;;;5049137;28;20653;-86
2022/06/07 09:14:32;;;;;;;2.38;0.70;;;20.70;95.50;;;;;;5054875;28;20157;-89
2022/06/07 09:17:00;;;;;;;2.72;0.60;;;20.90;95.80;;;;;;5053074;28;20712;-89
2022/06/07 09:19:29;;;;;;;4.05;0.70;;;21.00;95.10;;;;;;5054510;28;20254;-89
2022/06/07 09:21:58;;;;;;;2.38;0.65;;;21.00;93.80;;;;;;5046695;28;20174;-87
2022/06/07 09:24:27;;;;;;;1.02;0.60;;;21.00;92.50;;;;;;5033023;28;20216;-87
2022/06/07 09:27:10;;;;;;;1.73;0.63;;;21.00;92.80;;;;;;5024180;28;20519;-88
2022/06/07 09:29:39;;;;;;;1.63;0.60;;;21.00;93.30;;;;;;5013641;28;20262;-89
2022/06/07 09:32:17;;;;;;;3.00;0.70;;;21.00;92.80;;;;;;5013421;28;20726;-87
2022/06/07 09:35:08;;;;;;;2.75;0.60;;;21.10;93.60;;;;;;5013781;28;20632;-87
2022/06/07 09:37:58;;;;;;;4.18;0.80;;;21.10;93.50;;;;;;5020375;28;20256;-87
2022/06/07 09:40:27;;;;;;;0.90;0.60;;;21.30;94.40;;;;;;5033335;28;20163;-87
2022/06/07 09:43:17;;;;;;;2.20;0.73;;;21.40;93.20;;;;;;5033823;28;20185;-87
2022/06/07 09:45:54;;;;;;;1.40;0.60;;;21.30;93.10;;;;;;5024108;28;20221;-87
2022/06/07 09:48:29;;;;;;;1.05;0.70;;;21.40;93.20;;;;;;5032226;28;20190;-87
2022/06/07 09:51:16;;;;;;;3.17;0.80;;;21.70;94.10;;;;;;5032822;28;20171;-87
2022/06/07 09:54:04;;;;;;;1.88;0.70;;;22.00;94.10;;;;;;5032209;28;20186;-87
2022/06/07 09:56:51;;;;;;;2.25;0.70;;;21.90;93.30;;;;;;5032173;28;20213;-87
2022/06/07 09:59:38;;;;;;;1.02;0.65;;;21.80;93.20;;;;;;5032786;28;20497;-87
2022/06/07 10:02:21;;;;;;;5.90;0.80;;;22.20;94.90;;;;;;5033626;28;20742;-87
2022/06/07 10:05:33;;;;;;;3.28;0.80;;;22.20;94.00;;;;;;5032937;28;20204;-88
2022/06/07 10:08:11;;;;;;;1.58;0.57;;;22.10;93.70;;;;;;5018725;28;20194;-88
2022/06/07 10:10:54;;;;;;;2.25;0.95;;;22.30;94.40;;;;;;5032456;28;20688;-87
2022/06/07 10:13:44;;;;;;;2.40;1.40;;;22.40;93.70;;;;;;5032439;28;20183;-87
2022/06/07 10:16:20;;;;;;;2.65;0.68;;;22.30;93.50;;;;;;5033367;28;20305;-87
2022/06/07 10:18:49;;;;;;;2.15;1.00;;;22.20;93.50;;;;;;5032312;28;20599;-87
2022/06/07 10:21:40;;;;;;;5.82;1.38;;;22.20;94.30;;;;;;5032279;28;20182;-88
2022/06/07 10:24:17;;;;;;;1.52;0.80;;;22.30;93.90;;;;;;5031360;28;20182;-87
2022/06/07 10:27:23;;;;;;;2.40;0.80;;;22.40;94.40;;;;;;5032260;28;20202;-86
2022/06/07 10:29:51;;;;;;;3.90;0.80;;;22.50;92.40;;;;;;5028069;28;20182;-87
2022/06/07 10:33:03;;;;;;;2.53;0.95;;;22.50;93.40;;;;;;5048466;28;20194;-87
2022/06/07 10:35:56;;;;;;;2.15;0.85;;;22.40;92.50;;;;;;5023753;28;20280;-87
2022/06/07 10:38:47;;;;;;;3.55;0.90;;;22.40;93.90;;;;;;5044762;28;20206;-87
2022/06/07 10:41:36;;;;;;;2.45;0.60;;;22.20;94.10;;;;;;5030946;28;20232;-87
2022/06/07 10:44:31;;;;;;;0.88;0.63;;;22.20;94.40;;;;;;5032025;28;20685;-87
2022/06/07 10:47:00;;;;;;;2.20;0.75;;;22.00;93.50;;;;;;5048728;28;20179;-86
2022/06/07 10:49:43;;;;;;;1.95;0.90;;;21.60;93.10;;;;;;5032136;28;20167;-87
2022/06/07 10:52:32;;;;;;;2.58;0.80;;;21.80;96.00;;;;;;5031748;28;20548;-87
2022/06/07 10:55:22;;;;;;;2.05;0.70;;;22.20;94.60;;;;;;5030864;28;20666;-86
2022/06/07 10:58:06;;;;;;;1.80;0.70;;;22.70;93.50;;;;;;5031432;28;20244;-86
2022/06/07 11:00:37;;;;;;;0.82;0.60;;;22.90;92.10;;;;;;5020915;28;20246;-87
2022/06/07 11:03:13;;;;;;;1.92;0.70;;;22.60;92.00;;;;;;5011737;28;20171;-87
2022/06/07 11:11:40;;;;;;;2.20;0.80;;;22.80;91.10;;;;;;5030270;28;20673;-86
2022/06/07 11:14:22;;;;;;;3.78;0.90;;;22.60;91.40;;;;;;5031345;28;20186;-87
2022/06/07 11:16:56;;;;;;;3.83;0.80;;;22.40;91.50;;;;;;5030977;28;20234;-87
2022/06/07 11:19:22;;;;;;;1.25;0.80;;;22.30;92.00;;;;;;5031301;28;20564;-87
2022/06/07 11:21:55;;;;;;;1.20;0.55;;;22.10;91.90;;;;;;5031087;28;20170;-87
2022/06/07 11:24:30;;;;;;;0.90;0.55;;;22.00;93.30;;;;;;5030927;28;20560;-86
2022/06/07 11:26:58;;;;;;;3.65;0.60;;;22.10;92.70;;;;;;5031318;28;20251;-86
2022/06/07 11:29:29;;;;;;;0.75;0.60;;;22.00;92.10;;;;;;5031112;28;20178;-87
2022/06/07 11:31:57;;;;;;;2.60;0.50;;;21.90;92.30;;;;;;5030521;28;20174;-88
2022/06/07 11:34:34;;;;;;;1.00;0.60;;;22.30;94.00;;;;;;5030852;28;20361;-87
2022/06/07 11:37:15;;;;;;;1.00;0.63;;;22.70;92.10;;;;;;5030770;28;20673;-87
2022/06/07 11:39:51;;;;;;;1.50;0.60;;;23.00;92.30;;;;;;5031097;28;20216;-87
2022/06/07 11:42:17;;;;;;;2.40;0.68;;;23.20;93.60;;;;;;5030932;28;20540;-87
2022/06/07 11:44:42;;;;;;;3.72;0.80;;;23.00;91.50;;;;;;5030603;28;20213;-86
2022/06/07 11:47:11;;;;;;;1.65;0.60;;;22.90;92.10;;;;;;5031384;28;20182;-86
2022/06/07 11:49:46;;;;;;;2.47;0.65;;;22.70;91.10;;;;;;5034293;28;20570;-87
2022/06/07 11:52:11;;;;;;;1.35;0.60;;;22.60;91.40;;;;;;5036213;28;20792;-86
2022/06/07 11:54:50;;;;;;;0.75;0.50;;;22.70;92.20;;;;;;5035286;28;20269;-87
2022/06/07 11:57:42;;;;;;;4.32;0.70;;;22.90;93.60;;;;;;5034609;28;20205;-87
2022/06/07 12:00:16;;;;;;;1.48;0.60;;;23.00;92.80;;;;;;5025769;28;20238;-86
2022/06/07 12:03:06;;;;;;;1.48;0.70;;;23.10;91.90;;;;;;5034491;28;20276;-86
2022/06/07 12:05:52;;;;;;;2.30;0.40;;;23.30;91.50;;;;;;5035439;28;20290;-86
2022/06/07 12:08:39;;;;;;;1.80;0.63;;;23.20;90.80;;;;;;5036056;28;20684;-87
2022/06/07 12:11:23;;;;;;;2.88;0.82;;;23.40;91.70;;;;;;5036590;28;20166;-87
2022/06/07 12:14:14;;;;;;;0.70;0.43;;;23.10;90.20;;;;;;5034334;28;20190;-86
2022/06/07 12:16:43;;;;;;;4.80;0.55;;;23.40;91.10;;;;;;5034476;28;20677;-86
2022/06/07 12:19:18;;;;;;;2.17;0.40;;;23.70;89.20;;;;;;5034440;28;20316;-86
2022/06/07 12:22:02;;;;;;;1.80;0.70;;;23.90;87.00;;;;;;5034002;28;20181;-87
2022/06/07 12:24:39;;;;;;;1.85;0.60;;;23.90;87.80;;;;;;5041065;28;20181;-86
2022/06/07 12:27:29;;;;;;;1.60;0.35;;;23.90;89.80;;;;;;5055977;28;20165;-87
2022/06/07 12:30:33;;;;;;;1.67;0.70;;;24.10;86.90;;;;;;5055578;28;20249;-86
2022/06/07 12:33:24;;;;;;;1.85;0.50;;;24.20;86.20;;;;;;5054870;28;20170;-86
2022/06/07 12:36:20;;;;;;;5.15;0.65;;;24.40;84.90;;;;;;5055474;28;20200;-87
2022/06/07 12:38:48;;;;;;;1.52;0.70;;;24.40;86.40;;;;;;5054910;28;20288;-87
2022/06/07 12:41:22;;;;;;;3.85;0.80;;;24.40;85.00;;;;;;5042778;28;20189;-88
2022/06/07 12:43:53;;;;;;;4.53;0.55;;;24.40;84.90;;;;;;5035358;28;20190;-86
2022/06/07 12:46:28;;;;;;;0.82;0.50;;;24.50;85.30;;;;;;5035015;28;20670;-86
2022/06/07 12:48:55;;;;;;;3.33;0.50;;;24.60;84.50;;;;;;5036546;28;20170;-86
2022/06/07 12:51:37;;;;;;;1.85;0.60;;;24.70;87.50;;;;;;5035392;28;20171;-86
2022/06/07 12:54:16;;;;;;;2.05;0.70;;;24.80;84.70;;;;;;5035332;28;20170;-86
2022/06/07 12:56:46;;;;;;;1.40;0.60;;;24.70;84.80;;;;;;5036346;28;20202;-86
2022/06/07 13:00:00;;;;;;;2.30;0.68;;;24.70;85.30;;;;;;5034607;28;20167;-87
2022/06/07 13:02:37;;;;;;;3.08;0.85;;;24.80;85.60;;;;;;5029013;28;20190;-86
2022/06/07 13:05:16;;;;;;;2.10;0.68;;;24.60;84.40;;;;;;5035095;28;20281;-86
2022/06/07 13:07:49;;;;;;;2.28;0.55;;;24.60;86.20;;;;;;5016886;28;20179;-87
2022/06/07 13:10:24;;;;;;;1.15;0.60;;;24.70;82.90;;;;;;5014988;28;20221;-86
2022/06/07 13:12:59;;;;;;;1.90;0.52;;;24.70;85.50;;;;;;5014952;28;20262;-85
2022/06/07 13:15:37;;;;;;;1.35;0.77;;;24.70;85.30;;;;;;5014166;28;20226;-87
2022/06/07 13:18:14;;;;;;;1.63;0.77;;;24.80;86.20;;;;;;5014868;28;20226;-86
2022/06/07 13:20:48;;;;;;;1.48;0.57;;;25.00;83.70;;;;;;5014483;28;20167;-87
2022/06/07 13:23:17;;;;;;;0.60;0.50;;;24.90;83.50;;;;;;5014763;28;20168;-86
2022/06/07 13:26:12;;;;;;;1.40;0.70;;;24.60;84.30;;;;;;5014683;28;20277;-86
2022/06/07 13:28:38;;;;;;;2.10;0.70;;;24.20;85.60;;;;;;5014887;28;20206;-87
2022/06/07 13:31:33;;;;;;;1.00;0.60;;;23.90;86.00;;;;;;5014924;28;20258;-87
2022/06/07 13:34:31;;;;;;;1.83;0.75;;;23.70;88.00;;;;;;5015894;28;20195;-86
2022/06/07 13:37:14;;;;;;;1.88;0.65;;;23.70;85.90;;;;;;5014572;28;20720;-86
2022/06/07 13:40:03;;;;;;;4.32;1.00;;;23.80;86.80;;;;;;5014412;28;20171;-87